Time;durP1;ratioP1;P1;durP2;ratioP2;P2;SDS_P1;SDS_P2;PMS_P1;PMS_P2;Temp;Humidity;BMP_temperature;BMP_pressure;BME280_temperature;BME280_humidity;BME280_pressure;Samples;Min_cycle;Max_cycle;Signal;HPM_P1;HPM_P2
2023/06/21 00:01:50;;;;;;;5.57;3.78;;;;;;;20.58;97.86;100962.41;4971834;28;20636;-74
2023/06/21 00:04:19;;;;;;;5.40;2.88;;;;;;;20.56;97.82;100967.88;4990010;28;20050;-74
2023/06/21 00:06:49;;;;;;;5.72;3.42;;;;;;;20.53;98.24;100960.44;4990967;28;20121;-75
2023/06/21 00:09:15;;;;;;;4.30;3.03;;;;;;;20.51;98.56;100961.66;4985702;28;20054;-74
2023/06/21 00:11:41;;;;;;;5.15;3.22;;;;;;;20.49;98.83;100958.44;4979637;28;20057;-74
2023/06/21 00:14:07;;;;;;;5.63;3.75;;;;;;;20.39;98.10;100969.47;4982725;28;20047;-74
2023/06/21 00:16:35;;;;;;;5.35;3.45;;;;;;;20.33;99.13;100968.53;4987002;28;20516;-74
2023/06/21 00:19:01;;;;;;;6.05;3.20;;;;;;;20.31;99.52;100967.94;4999388;28;20044;-75
2023/06/21 00:21:26;;;;;;;4.15;3.10;;;;;;;20.28;99.85;100978.09;4990707;28;20042;-75
2023/06/21 00:23:52;;;;;;;6.70;3.85;;;;;;;20.29;99.93;100969.97;5003978;28;20090;-75
2023/06/21 00:26:18;;;;;;;4.47;3.47;;;;;;;20.35;99.21;100973.56;5007386;28;20031;-75
2023/06/21 00:28:43;;;;;;;5.45;3.30;;;;;;;20.37;98.98;100985.50;4979375;28;20039;-75
2023/06/21 00:31:10;;;;;;;8.20;4.03;;;;;;;20.34;98.49;100980.69;4982627;28;20031;-74
2023/06/21 00:33:37;;;;;;;5.25;3.70;;;;;;;20.30;98.95;100978.66;4984090;28;20204;-74
2023/06/21 00:36:02;;;;;;;6.53;3.20;;;;;;;20.29;98.95;100983.13;4989700;28;20163;-75
2023/06/21 00:38:28;;;;;;;5.43;3.72;;;;;;;20.27;98.72;100979.09;5020501;28;20094;-74
2023/06/21 00:40:53;;;;;;;6.85;3.95;;;;;;;20.22;98.99;100972.66;4969552;28;20030;-74
2023/06/21 00:43:19;;;;;;;4.93;3.53;;;;;;;20.22;99.39;100969.22;4986029;28;20556;-75
2023/06/21 00:45:48;;;;;;;5.57;3.38;;;;;;;20.19;99.18;100970.47;4982535;28;20026;-75
2023/06/21 00:48:14;;;;;;;8.50;4.28;;;;;;;20.19;99.10;100985.44;4982960;28;20038;-75
2023/06/21 00:50:40;;;;;;;5.63;3.35;;;;;;;20.15;99.05;100984.25;5001175;28;20405;-75
2023/06/21 00:53:08;;;;;;;4.93;3.58;;;;;;;20.12;99.38;100992.59;4982188;28;20038;-75
2023/06/21 00:55:34;;;;;;;5.05;3.45;;;;;;;20.10;99.41;100990.19;4985273;28;20042;-75
2023/06/21 00:58:01;;;;;;;7.15;4.00;;;;;;;20.05;99.22;100999.75;4985833;28;20029;-75
2023/06/21 01:00:26;;;;;;;4.85;3.65;;;;;;;20.00;99.59;101006.47;5000631;28;20172;-75
2023/06/21 01:02:56;;;;;;;4.30;3.05;;;;;;;19.93;100.00;101008.31;4986770;28;20719;-75
2023/06/21 01:05:26;;;;;;;5.28;3.50;;;;;;;19.91;100.00;101015.63;4986452;28;20133;-75
2023/06/21 01:07:52;;;;;;;5.95;3.70;;;;;;;19.92;99.92;101030.38;4973110;28;20101;-75
2023/06/21 01:10:32;;;;;;;5.80;3.67;;;;;;;19.89;99.65;101025.56;5008878;28;20050;-74
2023/06/21 01:13:31;;;;;;;7.47;4.28;;;;;;;19.87;99.65;101027.56;4975738;28;20030;-75
2023/06/21 01:16:34;;;;;;;4.88;3.50;;;;;;;19.83;100.00;101029.84;4987954;28;20404;-75
2023/06/21 01:19:01;;;;;;;5.77;3.83;;;;;;;19.82;100.00;101030.06;4997705;28;20046;-75
2023/06/21 01:21:28;;;;;;;6.13;3.60;;;;;;;19.80;100.00;101024.19;4992579;28;20029;-75
2023/06/21 01:24:06;;;;;;;5.60;3.58;;;;;;;19.79;100.00;101017.31;5006139;28;20472;-75
2023/06/21 01:26:42;;;;;;;5.38;3.80;;;;;;;19.81;100.00;101023.16;4991147;28;20120;-75
2023/06/21 01:29:16;;;;;;;5.60;3.72;;;;;;;19.80;100.00;101024.19;5004464;28;20061;-75
2023/06/21 01:31:45;;;;;;;5.05;3.40;;;;;;;19.80;100.00;101022.34;5020501;28;20030;-75
2023/06/21 01:34:12;;;;;;;5.15;3.35;;;;;;;19.77;99.90;101025.41;5000989;28;20199;-75
2023/06/21 01:36:39;;;;;;;6.80;3.40;;;;;;;19.76;99.69;101028.25;5038737;28;20401;-75
2023/06/21 01:39:08;;;;;;;4.38;3.42;;;;;;;19.72;99.49;101035.78;5002671;28;20046;-75
2023/06/21 01:41:39;;;;;;;6.43;4.05;;;;;;;19.65;99.90;101033.13;5020276;28;20041;-75
2023/06/21 01:44:07;;;;;;;6.75;4.00;;;;;;;19.64;100.00;101039.41;5011808;28;20063;-75
2023/06/21 01:46:32;;;;;;;7.03;3.58;;;;;;;19.61;100.00;101039.84;4999027;28;20046;-75
2023/06/21 01:49:00;;;;;;;7.40;3.72;;;;;;;19.55;100.00;101032.78;5001840;28;20166;-75
2023/06/21 01:51:26;;;;;;;6.78;4.28;;;;;;;19.53;100.00;101036.63;4988898;28;20084;-75
2023/06/21 01:53:52;;;;;;;4.68;3.33;;;;;;;19.51;100.00;101036.84;5006104;28;20437;-75
2023/06/21 01:56:18;;;;;;;6.35;3.78;;;;;;;19.50;100.00;101039.69;5021453;28;21429;-75
2023/06/21 01:58:46;;;;;;;6.68;4.03;;;;;;;19.47;100.00;101048.78;4987035;28;20049;-75
2023/06/21 02:01:13;;;;;;;5.15;3.90;;;;;;;19.45;100.00;101051.63;4983355;28;20030;-75
2023/06/21 02:03:43;;;;;;;7.35;3.90;;;;;;;19.42;100.00;101057.31;4972830;28;20555;-75
2023/06/21 02:06:11;;;;;;;7.43;4.28;;;;;;;19.39;100.00;101047.22;4974016;28;20026;-75
2023/06/21 02:08:38;;;;;;;9.13;3.70;;;;;;;19.39;100.00;101049.03;4987404;28;20047;-75
2023/06/21 02:11:05;;;;;;;5.53;3.80;;;;;;;19.37;100.00;101057.13;4986633;28;20034;-75
2023/06/21 02:13:30;;;;;;;6.53;3.80;;;;;;;19.36;100.00;101049.44;4996000;28;20049;-75
2023/06/21 02:15:56;;;;;;;5.95;4.03;;;;;;;19.34;100.00;101049.66;5019351;28;20026;-75
2023/06/21 02:18:23;;;;;;;6.47;4.20;;;;;;;19.33;100.00;101061.19;4988703;28;20022;-76
2023/06/21 02:20:49;;;;;;;7.10;4.18;;;;;;;19.30;100.00;101061.59;5036712;28;20053;-75
2023/06/21 02:23:15;;;;;;;5.28;3.85;;;;;;;19.29;100.00;101059.16;5020339;28;20040;-75
2023/06/21 02:25:42;;;;;;;7.18;4.15;;;;;;;19.28;100.00;101054.94;5007156;28;20045;-76
2023/06/21 02:28:07;;;;;;;7.70;4.72;;;;;;;19.29;100.00;101056.53;5037927;28;20033;-76
2023/06/21 02:30:34;;;;;;;7.65;3.75;;;;;;;19.30;100.00;101055.53;5014333;28;20544;-75
2023/06/21 02:33:02;;;;;;;5.68;4.20;;;;;;;19.26;100.00;101060.41;5015104;28;20029;-76
2023/06/21 02:35:28;;;;;;;6.97;4.15;;;;;;;19.25;100.00;101058.81;5024512;28;20065;-75
2023/06/21 02:37:53;;;;;;;7.47;4.32;;;;;;;19.22;100.00;101059.19;4993476;28;20044;-75
2023/06/21 02:40:19;;;;;;;6.93;4.18;;;;;;;19.21;100.00;101066.28;5012422;28;20050;-76
2023/06/21 02:42:44;;;;;;;8.98;4.97;;;;;;;19.18;100.00;101071.16;5012505;28;20037;-75
2023/06/21 02:45:10;;;;;;;8.00;4.18;;;;;;;19.17;100.00;101065.06;5041696;28;20108;-75
2023/06/21 02:47:36;;;;;;;11.70;5.10;;;;;;;19.16;100.00;101062.66;5014431;28;20040;-75
2023/06/21 02:50:03;;;;;;;7.10;4.68;;;;;;;19.13;100.00;101065.69;5010129;28;20045;-75
2023/06/21 02:52:29;;;;;;;7.00;4.95;;;;;;;19.11;100.00;101065.09;5009182;28;20034;-75
2023/06/21 02:54:57;;;;;;;8.18;4.25;;;;;;;19.09;100.00;101070.56;5045439;28;20056;-75
2023/06/21 02:57:22;;;;;;;6.50;4.20;;;;;;;19.08;100.00;101076.00;5026799;28;20061;-75
2023/06/21 02:59:49;;;;;;;5.50;4.28;;;;;;;19.07;100.00;101080.47;5044739;27;20432;-74
2023/06/21 03:02:16;;;;;;;6.47;4.32;;;;;;;19.06;100.00;101079.66;5024186;28;20381;-75
2023/06/21 03:04:42;;;;;;;8.95;4.70;;;;;;;19.08;100.00;101078.63;5010996;28;20064;-75
2023/06/21 03:07:08;;;;;;;6.80;4.55;;;;;;;19.05;100.00;101088.56;5013648;28;20116;-76
2023/06/21 03:09:34;;;;;;;6.80;4.05;;;;;;;19.04;100.00;101094.84;4992538;28;20505;-76
2023/06/21 03:12:08;;;;;;;6.03;4.30;;;;;;;19.05;100.00;101098.25;5013603;28;20044;-75
2023/06/21 03:14:38;;;;;;;6.13;4.20;;;;;;;19.05;100.00;101096.44;5013548;28;20053;-75
2023/06/21 03:17:06;;;;;;;6.85;4.47;;;;;;;19.04;100.00;101094.00;4993879;28;20072;-76
2023/06/21 03:19:33;;;;;;;8.98;4.55;;;;;;;19.03;100.00;101098.47;5042022;28;20433;-76
2023/06/21 03:21:59;;;;;;;5.75;4.00;;;;;;;19.01;100.00;101105.75;5029662;28;20040;-75
2023/06/21 03:24:26;;;;;;;5.75;4.25;;;;;;;18.99;100.00;101097.25;4994044;28;20038;-75
2023/06/21 03:26:53;;;;;;;5.40;3.83;;;;;;;18.98;100.00;101110.59;5011801;28;20200;-76
2023/06/21 03:29:19;;;;;;;7.13;4.00;;;;;;;18.94;100.00;101106.75;4996121;28;20057;-76
2023/06/21 03:31:45;;;;;;;5.57;4.40;;;;;;;18.93;100.00;101113.84;5042737;28;20109;-76
2023/06/21 03:34:11;;;;;;;6.68;4.47;;;;;;;18.91;100.00;101115.88;5025665;28;20038;-76
2023/06/21 03:36:36;;;;;;;9.27;4.47;;;;;;;18.92;100.00;101122.72;5006050;28;20022;-76
2023/06/21 03:39:02;;;;;;;8.93;4.97;;;;;;;18.92;100.00;101116.66;5024680;28;20034;-76
2023/06/21 03:41:27;;;;;;;7.68;4.65;;;;;;;18.92;100.00;101122.72;4992228;28;20393;-76
2023/06/21 03:43:54;;;;;;;9.27;4.80;;;;;;;18.91;100.00;101130.81;4988890;28;20042;-76
2023/06/21 03:46:19;;;;;;;8.43;4.38;;;;;;;18.89;100.00;101128.38;4989053;28;20034;-75
2023/06/21 03:48:45;;;;;;;7.95;5.20;;;;;;;18.91;100.00;101128.19;4995835;28;20048;-76
2023/06/21 03:51:11;;;;;;;7.18;4.50;;;;;;;18.92;100.00;101122.72;5025879;28;20052;-76
2023/06/21 03:53:37;;;;;;;7.30;4.72;;;;;;;18.97;100.00;101130.00;5014547;28;20052;-76
2023/06/21 03:56:04;;;;;;;6.68;4.43;;;;;;;18.99;100.00;101130.63;5013619;28;20033;-75
2023/06/21 03:58:31;;;;;;;6.82;4.63;;;;;;;19.00;100.00;101121.72;5027145;28;20125;-75
2023/06/21 04:00:57;;;;;;;9.57;5.20;;;;;;;19.00;100.00;101119.06;5010282;28;20488;-76
2023/06/21 04:03:22;;;;;;;6.32;4.60;;;;;;;19.01;100.00;101132.03;4992638;28;20029;-76
2023/06/21 04:05:48;;;;;;;7.72;4.55;;;;;;;19.02;100.00;101124.94;5007978;28;20525;-76
2023/06/21 04:08:13;;;;;;;7.88;5.00;;;;;;;19.05;100.00;101124.53;5009823;28;20033;-76
2023/06/21 04:10:39;;;;;;;8.95;4.68;;;;;;;19.09;100.00;101132.81;4993041;28;20485;-76
2023/06/21 04:13:04;;;;;;;7.60;4.93;;;;;;;19.10;100.00;101123.91;5026136;28;20030;-75
2023/06/21 04:15:30;;;;;;;7.80;4.95;;;;;;;19.09;100.00;101128.38;5009132;28;20076;-75
2023/06/21 04:17:55;;;;;;;7.32;5.25;;;;;;;19.10;100.00;101132.63;5025748;28;20075;-76
2023/06/21 04:20:21;;;;;;;7.80;5.32;;;;;;;19.12;100.00;101133.22;5008024;28;20112;-75
2023/06/21 04:22:47;;;;;;;9.45;5.97;;;;;;;19.14;100.00;101133.81;4999154;28;20405;-75
2023/06/21 04:25:12;;;;;;;9.57;5.80;;;;;;;19.16;100.00;101133.63;5006588;28;20030;-76
2023/06/21 04:27:40;;;;;;;7.82;5.15;;;;;;;19.15;100.00;101145.94;5007999;28;20099;-76
2023/06/21 04:30:09;;;;;;;8.32;5.45;;;;;;;19.17;100.00;101149.16;4995252;28;20038;-75
2023/06/21 04:32:34;;;;;;;8.82;5.75;;;;;;;19.19;100.00;101143.72;4988010;28;20670;-76
2023/06/21 04:35:00;;;;;;;12.93;5.18;;;;;;;19.21;100.00;101146.94;5005518;28;20041;-75
2023/06/21 04:37:25;;;;;;;8.63;6.07;;;;;;;19.24;100.00;101143.91;5009880;28;20038;-75
2023/06/21 04:39:54;;;;;;;10.70;5.85;;;;;;;19.25;100.00;101146.34;4994185;28;20077;-75
2023/06/21 04:42:20;;;;;;;8.82;6.10;;;;;;;19.28;100.00;101154.84;4987499;28;20793;-76
2023/06/21 04:44:49;;;;;;;8.70;5.55;;;;;;;19.33;100.00;101162.91;4991730;28;20415;-75
2023/06/21 04:47:16;;;;;;;10.57;5.65;;;;;;;19.40;100.00;101153.19;4984456;28;20065;-75
2023/06/21 04:49:42;;;;;;;10.18;5.68;;;;;;;19.45;100.00;101156.00;4993616;28;20050;-76
2023/06/21 04:52:09;;;;;;;7.80;5.40;;;;;;;19.52;100.00;101156.81;5017372;28;20037;-75
2023/06/21 04:54:36;;;;;;;8.45;5.82;;;;;;;19.57;100.00;101158.78;5019604;28;20049;-75
2023/06/21 04:57:06;;;;;;;9.13;6.80;;;;;;;19.62;100.00;101159.78;5006230;28;20125;-75
2023/06/21 04:59:33;;;;;;;8.48;6.50;;;;;;;19.67;100.00;101163.66;5023766;28;20046;-74
2023/06/21 05:01:58;;;;;;;11.30;6.78;;;;;;;19.68;100.00;101168.69;4987573;28;20038;-74
2023/06/21 05:04:23;;;;;;;12.60;6.38;;;;;;;19.73;100.00;101168.09;4988905;28;20050;-74
2023/06/21 05:06:49;;;;;;;8.75;6.20;;;;;;;19.78;100.00;101176.19;4989232;28;20681;-74
2023/06/21 05:09:14;;;;;;;11.93;7.18;;;;;;;19.83;100.00;101171.91;5000819;28;20058;-74
2023/06/21 05:11:40;;;;;;;11.90;7.00;;;;;;;19.92;100.00;101176.94;5040310;28;20026;-73
2023/06/21 05:14:08;;;;;;;10.65;6.93;;;;;;;20.00;100.00;101180.16;4987893;28;20046;-74
2023/06/21 05:16:34;;;;;;;11.95;7.47;;;;;;;20.13;100.00;101179.25;4968008;28;20049;-73
2023/06/21 05:18:59;;;;;;;13.10;6.90;;;;;;;20.18;100.00;101182.06;4995717;28;20050;-74
2023/06/21 05:21:25;;;;;;;10.57;6.40;;;;;;;20.26;100.00;101181.00;5003203;28;20034;-73
2023/06/21 05:23:50;;;;;;;9.18;7.00;;;;;;;20.33;100.00;101179.16;4986823;28;20102;-73
2023/06/21 05:26:16;;;;;;;9.93;7.32;;;;;;;20.40;100.00;101190.47;4986531;28;20070;-74
2023/06/21 05:28:41;;;;;;;11.60;6.97;;;;;;;20.48;100.00;101196.50;4990159;28;20485;-73
2023/06/21 05:31:07;;;;;;;10.10;7.30;;;;;;;20.51;100.00;101196.91;4986824;28;20477;-74
2023/06/21 05:33:32;;;;;;;11.70;8.38;;;;;;;20.55;100.00;101195.44;4985015;28;20046;-73
2023/06/21 05:35:58;;;;;;;12.68;7.88;;;;;;;20.68;100.00;101188.50;5009631;28;20034;-74
2023/06/21 05:38:23;;;;;;;18.60;9.35;;;;;;;20.85;100.00;101194.88;4990557;28;20053;-73
2023/06/21 05:40:49;;;;;;;15.20;9.55;;;;;;;20.88;100.00;101191.78;4992307;28;20026;-74
2023/06/21 05:43:14;;;;;;;18.88;10.35;;;;;;;20.94;100.00;101184.84;4991780;28;21101;-74
2023/06/21 05:45:40;;;;;;;15.05;8.20;;;;;;;21.05;100.00;101194.69;5011037;28;20018;-74
2023/06/21 05:48:05;;;;;;;15.48;8.50;;;;;;;21.18;100.00;101191.94;4988652;28;20030;-74
2023/06/21 05:50:31;;;;;;;17.35;8.25;;;;;;;21.33;100.00;101196.88;5012691;28;20022;-74
2023/06/21 05:52:57;;;;;;;16.10;9.20;;;;;;;21.48;99.40;101203.66;5009466;28;20034;-74
2023/06/21 05:55:23;;;;;;;13.35;9.57;;;;;;;21.60;98.18;101207.16;5015587;28;20567;-73
2023/06/21 05:57:49;;;;;;;16.25;9.73;;;;;;;21.65;97.83;101217.09;4986833;28;20034;-73
2023/06/21 06:00:16;;;;;;;13.18;9.20;;;;;;;21.74;97.81;101216.56;4990482;28;20046;-73
2023/06/21 06:02:42;;;;;;;12.85;8.85;;;;;;;21.90;97.87;101217.00;5015965;28;20378;-73
2023/06/21 06:05:09;;;;;;;13.98;7.85;;;;;;;21.92;97.22;101228.94;4991177;28;20081;-74
2023/06/21 06:07:34;;;;;;;14.85;8.73;;;;;;;22.07;95.93;101217.19;4995776;28;20038;-74
2023/06/21 06:10:00;;;;;;;13.65;8.60;;;;;;;22.22;95.66;101227.38;5003942;28;20532;-73
2023/06/21 06:12:25;;;;;;;14.50;8.75;;;;;;;22.31;93.90;101229.50;5006790;28;20041;-74
2023/06/21 06:14:51;;;;;;;14.18;9.25;;;;;;;22.41;93.83;101234.25;4975254;28;20579;-74
2023/06/21 06:17:17;;;;;;;13.15;8.75;;;;;;;22.47;93.31;101235.19;5006144;28;20056;-76
2023/06/21 06:19:42;;;;;;;12.77;7.97;;;;;;;22.65;92.77;101239.63;5003012;28;20038;-73
2023/06/21 06:22:08;;;;;;;14.07;8.45;;;;;;;22.84;91.53;101243.00;5011500;28;20109;-74
2023/06/21 06:24:33;;;;;;;13.63;7.40;;;;;;;23.15;90.90;101247.22;5011729;28;20076;-74
2023/06/21 06:26:59;;;;;;;11.68;8.07;;;;;;;23.11;90.48;101254.81;5013615;28;20060;-74
2023/06/21 06:29:24;;;;;;;14.55;9.00;;;;;;;23.05;91.04;101260.19;5008560;28;20483;-74
2023/06/21 06:31:51;;;;;;;11.02;7.30;;;;;;;23.10;90.38;101258.47;5012472;28;20033;-74
2023/06/21 06:34:17;;;;;;;14.50;8.77;;;;;;;23.08;90.10;101268.47;5019859;28;20512;-75
2023/06/21 06:36:42;;;;;;;15.70;11.32;;;;;;;22.94;90.00;101267.03;5011185;28;20061;-74
2023/06/21 06:39:09;;;;;;;19.58;8.68;;;;;;;22.55;91.15;101266.59;5018758;28;20500;-74
2023/06/21 06:41:34;;;;;;;11.20;8.85;;;;;;;22.49;92.00;101268.31;5007995;28;20029;-74
2023/06/21 06:44:06;;;;;;;15.48;9.25;;;;;;;22.62;90.93;101271.78;5000567;28;20129;-76
2023/06/21 06:46:31;;;;;;;10.80;7.90;;;;;;;22.79;91.51;101271.94;5000299;28;20033;-73
2023/06/21 06:48:58;;;;;;;14.50;8.57;;;;;;;22.81;91.47;101281.28;4986431;28;20091;-74
2023/06/21 06:51:23;;;;;;;15.60;8.93;;;;;;;22.86;90.94;101285.88;4993024;28;20031;-74
2023/06/21 06:53:49;;;;;;;15.52;9.40;;;;;;;22.77;89.91;101279.28;5026315;28;20497;-74
2023/06/21 06:56:15;;;;;;;12.68;8.63;;;;;;;22.64;91.84;101281.13;4995321;28;20521;-74
2023/06/21 06:58:40;;;;;;;18.40;9.20;;;;;;;22.55;92.39;101288.53;4989757;28;20125;-75
2023/06/21 07:01:06;;;;;;;14.63;8.73;;;;;;;22.43;93.41;101284.22;4983707;28;20552;-74
2023/06/21 07:03:32;;;;;;;16.25;9.15;;;;;;;22.39;93.77;101291.78;5017673;28;20445;-75
2023/06/21 07:06:01;;;;;;;17.33;8.60;;;;;;;22.42;93.88;101293.19;4991107;28;20034;-74
2023/06/21 07:08:27;;;;;;;14.10;9.88;;;;;;;22.60;93.85;101301.06;4987686;28;20674;-74
2023/06/21 07:10:53;;;;;;;12.35;9.50;;;;;;;22.69;92.27;101304.22;4998897;28;20039;-74
2023/06/21 07:13:19;;;;;;;13.90;10.60;;;;;;;22.67;91.57;101301.00;4993096;28;20108;-74
2023/06/21 07:15:47;;;;;;;18.30;10.07;;;;;;;22.71;90.99;101304.78;4976324;28;20073;-74
2023/06/21 07:18:15;;;;;;;14.50;9.00;;;;;;;22.71;91.04;101295.00;4986564;28;20072;-74
2023/06/21 07:20:41;;;;;;;16.27;9.68;;;;;;;22.68;91.84;101292.84;5000390;28;20034;-73
2023/06/21 07:23:07;;;;;;;13.73;9.30;;;;;;;23.38;88.80;101293.25;4985366;28;20401;-73
2023/06/21 07:25:32;;;;;;;13.32;9.63;;;;;;;23.42;86.91;101292.53;5017677;28;20096;-74
2023/06/21 07:27:58;;;;;;;11.13;8.73;;;;;;;23.62;86.71;101286.91;4988464;28;20045;-74
2023/06/21 07:30:23;;;;;;;10.13;7.47;;;;;;;24.25;84.17;101285.31;4988404;28;20042;-73
2023/06/21 07:32:50;;;;;;;15.80;9.23;;;;;;;24.36;83.70;101310.16;4986083;28;20386;-74
2023/06/21 07:35:16;;;;;;;13.13;8.40;;;;;;;24.22;83.35;101303.50;4987543;28;20526;-73
2023/06/21 07:37:42;;;;;;;16.27;8.75;;;;;;;23.97;82.88;101299.31;4988572;28;20034;-74
2023/06/21 07:40:12;;;;;;;14.02;9.55;;;;;;;24.01;83.00;101312.91;5000941;28;20042;-73
2023/06/21 07:42:38;;;;;;;14.20;10.18;;;;;;;24.17;83.20;101314.84;5002356;28;20038;-74
2023/06/21 07:45:05;;;;;;;14.07;9.95;;;;;;;24.20;82.28;101318.84;4987736;28;20148;-73
2023/06/21 07:47:31;;;;;;;14.02;10.00;;;;;;;24.09;82.97;101323.13;4988922;28;20040;-74
2023/06/21 07:49:57;;;;;;;10.77;8.73;;;;;;;24.62;81.06;101315.97;4984950;28;20038;-73
2023/06/21 07:52:22;;;;;;;16.92;12.65;;;;;;;25.13;78.77;101318.69;4985049;28;20505;-73
2023/06/21 07:54:49;;;;;;;17.05;12.57;;;;;;;25.01;79.68;101321.41;4971486;28;20034;-74
2023/06/21 07:57:18;;;;;;;21.35;10.13;;;;;;;25.16;77.62;101324.31;4988996;28;20045;-73
2023/06/21 07:59:45;;;;;;;17.75;10.45;;;;;;;25.50;74.86;101329.63;4988952;28;20090;-74
2023/06/21 08:02:13;;;;;;;17.95;10.35;;;;;;;25.59;73.29;101324.72;4988604;28;20030;-73
2023/06/21 08:04:42;;;;;;;13.55;9.02;;;;;;;25.63;72.77;101320.53;4970619;28;20141;-74
2023/06/21 08:07:08;;;;;;;11.65;9.27;;;;;;;25.30;73.83;101316.06;4992172;28;20042;-74
2023/06/21 08:09:36;;;;;;;15.05;9.05;;;;;;;24.95;75.64;101325.81;5003664;28;20049;-74
2023/06/21 08:12:02;;;;;;;11.82;8.90;;;;;;;24.67;78.45;101330.09;4990983;28;20034;-73
2023/06/21 08:14:27;;;;;;;13.77;9.05;;;;;;;24.67;78.49;101321.34;4984567;28;20109;-74
2023/06/21 08:16:53;;;;;;;12.95;9.20;;;;;;;24.48;79.90;101326.00;4986129;28;20030;-73
2023/06/21 08:19:19;;;;;;;13.98;9.23;;;;;;;24.38;78.90;101325.84;5000143;28;20582;-74
2023/06/21 08:21:44;;;;;;;12.13;9.25;;;;;;;24.34;79.68;101327.34;5002785;28;20037;-73
2023/06/21 08:24:10;;;;;;;11.43;7.88;;;;;;;24.28;79.95;101323.78;4995003;28;20050;-73
2023/06/21 08:26:36;;;;;;;11.15;8.15;;;;;;;24.22;80.29;101330.84;4985301;28;20042;-74
2023/06/21 08:29:01;;;;;;;11.43;7.38;;;;;;;24.24;80.69;101323.44;4988431;28;20052;-74
2023/06/21 08:31:27;;;;;;;11.48;7.97;;;;;;;24.33;78.11;101323.06;5014679;28;20041;-73
2023/06/21 08:33:52;;;;;;;12.68;8.30;;;;;;;24.40;77.82;101329.06;4987337;28;20049;-73
2023/06/21 08:36:19;;;;;;;8.98;7.53;;;;;;;24.33;78.06;101329.16;4984876;28;20034;-73
2023/06/21 08:38:45;;;;;;;9.40;7.25;;;;;;;24.69;77.47;101327.22;4982127;28;20132;-73
2023/06/21 08:41:11;;;;;;;9.30;7.30;;;;;;;25.11;74.58;101324.25;4988430;28;20124;-74
2023/06/21 08:43:37;;;;;;;12.05;8.02;;;;;;;25.39;73.37;101320.75;4984510;28;20100;-72
2023/06/21 08:46:06;;;;;;;12.70;8.23;;;;;;;25.40;73.26;101321.53;4989633;28;20038;-73
2023/06/21 08:48:32;;;;;;;10.88;7.82;;;;;;;25.44;72.91;101330.63;4986260;28;20100;-74
2023/06/21 08:51:03;;;;;;;11.95;8.98;;;;;;;25.36;72.64;101320.41;5013210;28;20117;-75
2023/06/21 08:53:39;;;;;;;17.13;11.43;;;;;;;25.25;72.77;101328.22;5021987;28;20081;-74
2023/06/21 08:56:06;;;;;;;10.73;8.18;;;;;;;25.49;72.45;101336.00;5011569;28;20108;-75
2023/06/21 08:58:49;;;;;;;11.75;7.53;;;;;;;25.52;71.97;101321.44;5011609;28;20050;-74
2023/06/21 09:01:21;;;;;;;9.10;6.82;;;;;;;25.78;71.33;101334.03;5007353;28;20735;-75
2023/06/21 09:03:58;;;;;;;12.70;7.90;;;;;;;25.92;70.47;101329.22;5040113;28;20513;-74
2023/06/21 09:06:26;;;;;;;13.25;7.78;;;;;;;25.78;70.82;101335.88;5021154;28;20029;-75
2023/06/21 09:08:52;;;;;;;12.00;7.82;;;;;;;25.56;71.95;101334.00;4990903;28;20061;-74
2023/06/21 09:11:21;;;;;;;11.27;7.07;;;;;;;25.59;71.55;101330.84;4988656;28;20045;-73
2023/06/21 09:13:47;;;;;;;9.55;7.35;;;;;;;25.47;72.27;101331.97;4997295;28;20511;-73
2023/06/21 09:16:13;;;;;;;12.23;8.32;;;;;;;25.20;72.46;101337.91;5038035;28;20651;-73
2023/06/21 09:18:40;;;;;;;15.25;9.38;;;;;;;25.36;72.29;101339.78;5005646;28;20188;-73
2023/06/21 09:21:11;;;;;;;11.00;7.93;;;;;;;25.53;72.06;101339.00;5010683;28;20125;-74
2023/06/21 09:23:38;;;;;;;11.35;8.75;;;;;;;26.21;69.84;101344.97;4999761;28;20049;-74
2023/06/21 09:26:04;;;;;;;10.50;7.45;;;;;;;26.40;68.19;101340.13;5005200;28;20405;-73
2023/06/21 09:28:32;;;;;;;11.68;7.85;;;;;;;26.45;68.09;101345.50;4989547;28;20042;-75
2023/06/21 09:30:59;;;;;;;11.07;7.60;;;;;;;26.37;67.82;101341.44;4991413;28;20034;-73
2023/06/21 09:33:25;;;;;;;14.10;9.25;;;;;;;26.29;67.79;101349.03;4994655;28;20071;-74
2023/06/21 09:35:51;;;;;;;11.68;7.90;;;;;;;26.71;65.25;101340.47;5015956;28;20064;-73
2023/06/21 09:38:32;;;;;;;10.40;7.60;;;;;;;26.21;66.74;101353.72;5002344;28;20100;-74
2023/06/21 09:41:00;;;;;;;8.85;6.45;;;;;;;26.11;67.70;101353.63;4995972;28;20057;-74
2023/06/21 09:43:25;;;;;;;11.05;7.60;;;;;;;26.32;66.44;101353.88;4971859;28;20046;-74
2023/06/21 09:46:05;;;;;;;11.18;7.78;;;;;;;26.64;65.23;101345.22;4988004;28;20023;-73
2023/06/21 09:48:32;;;;;;;8.38;6.93;;;;;;;27.07;64.51;101354.09;5001090;28;20462;-74
2023/06/21 09:51:01;;;;;;;12.90;7.32;;;;;;;27.67;62.57;101339.69;4987982;28;20034;-74
2023/06/21 09:53:26;;;;;;;12.70;7.82;;;;;;;28.05;60.50;101353.75;4989822;28;20183;-73
2023/06/21 09:56:04;;;;;;;11.32;7.55;;;;;;;28.11;59.72;101355.34;5036243;28;20038;-74
2023/06/21 09:58:34;;;;;;;11.93;7.38;;;;;;;28.32;57.34;101358.09;5004909;28;20046;-74
2023/06/21 10:01:05;;;;;;;12.18;7.00;;;;;;;28.53;57.35;101359.78;5010986;28;20029;-74
2023/06/21 10:03:33;;;;;;;8.27;6.10;;;;;;;28.58;57.00;101367.00;5010213;28;20038;-74
2023/06/21 10:05:59;;;;;;;10.45;5.70;;;;;;;28.93;57.09;101370.78;5004247;28;20092;-75
2023/06/21 10:08:27;;;;;;;10.93;5.75;;;;;;;29.03;54.90;101367.34;5002042;28;20054;-74
2023/06/21 10:10:53;;;;;;;9.68;5.97;;;;;;;28.82;55.60;101364.66;5005813;28;20468;-74
2023/06/21 10:13:26;;;;;;;10.55;6.47;;;;;;;28.73;55.14;101368.91;5036549;28;20056;-74
2023/06/21 10:15:53;;;;;;;11.20;6.75;;;;;;;28.43;55.84;101375.75;5015413;28;20541;-74
2023/06/21 10:18:19;;;;;;;8.80;6.32;;;;;;;28.23;56.47;101381.00;5000384;28;20044;-74
2023/06/21 10:20:48;;;;;;;8.52;6.13;;;;;;;27.80;58.47;101382.88;5001059;28;20038;-74
2023/06/21 10:23:15;;;;;;;11.43;7.95;;;;;;;28.03;57.15;101379.03;5020167;28;20054;-75
2023/06/21 10:25:44;;;;;;;8.02;7.15;;;;;;;28.18;57.52;101388.97;5003004;28;20035;-74
2023/06/21 10:28:13;;;;;;;11.95;7.80;;;;;;;28.46;56.72;101385.06;5001707;28;20025;-74
2023/06/21 10:30:41;;;;;;;9.82;6.70;;;;;;;28.78;56.86;101400.91;5004006;28;20101;-74
2023/06/21 10:33:08;;;;;;;11.35;6.63;;;;;;;28.93;54.83;101394.81;4999119;28;20060;-75
2023/06/21 10:35:36;;;;;;;7.90;6.20;;;;;;;28.87;55.74;101391.31;5004302;28;20095;-75
2023/06/21 10:38:18;;;;;;;10.32;5.75;;;;;;;29.17;53.55;101384.44;5007792;28;20025;-74
2023/06/21 10:40:44;;;;;;;7.80;5.85;;;;;;;29.05;54.34;101390.03;5004853;28;20441;-74
2023/06/21 10:43:10;;;;;;;11.07;5.40;;;;;;;28.70;52.37;101391.56;4993119;28;20044;-75
2023/06/21 10:45:39;;;;;;;7.15;5.28;;;;;;;28.25;54.48;101394.88;5009319;28;20030;-74
2023/06/21 10:48:08;;;;;;;9.02;4.50;;;;;;;28.71;55.04;101390.50;5012363;28;20496;-74
2023/06/21 10:50:33;;;;;;;5.97;4.38;;;;;;;29.08;50.52;101389.50;5013176;28;20524;-73
2023/06/21 10:53:01;;;;;;;5.68;4.43;;;;;;;28.85;51.24;101400.66;5010659;28;20026;-75
2023/06/21 10:55:27;;;;;;;8.05;4.07;;;;;;;28.70;51.24;101396.09;5012124;28;20128;-75
2023/06/21 10:57:54;;;;;;;7.57;4.50;;;;;;;28.72;50.79;101394.75;4994775;28;20117;-75
2023/06/21 11:00:22;;;;;;;6.15;4.25;;;;;;;28.90;50.80;101395.34;5005694;28;20050;-75
2023/06/21 11:02:48;;;;;;;5.50;3.70;;;;;;;28.99;51.65;101396.44;5009615;28;20034;-74
2023/06/21 11:05:21;;;;;;;8.07;4.20;;;;;;;29.29;51.47;101387.66;5037154;28;20057;-74
2023/06/21 11:08:01;;;;;;;6.95;4.18;;;;;;;29.46;50.72;101397.25;5011418;28;20048;-75
2023/06/21 11:10:31;;;;;;;5.38;4.00;;;;;;;29.47;49.27;101388.97;5009661;28;20057;-74
2023/06/21 11:13:04;;;;;;;6.10;3.95;;;;;;;29.66;49.46;101394.53;4983446;28;20042;-75
2023/06/21 11:15:31;;;;;;;5.97;3.70;;;;;;;29.55;48.28;101400.97;4995588;28;20049;-75
2023/06/21 11:18:01;;;;;;;5.78;3.97;;;;;;;29.32;49.63;101402.34;5003740;28;20030;-74